Pumpkin Center, Indiana
Current Conditions -  °F | °C
As of 10:53 AM on Sunday 25 Jan 2015 (Local Time) from KBMG Reporting Station
Light Rain Light Rain  
Wind Chill: 35°   Ceiling: 6500
Heat Index: 39°   Visibility: 8mi
Dew Point: 33°   Wind: 6mph
Humidity: 79%   Direction: 150°SSE
Pressure: 29.65"   Gusts: NA
Location:  38.6433°N, 86.4481°W
Report Text: KBMG 251553Z 15005KT 8SM -RA SCT050 OVC065 04/01 A2965 RMK AO2 RAB18 SLP044 P0000 T00390006 $
Loading
Personal Weather Stations






























Interactive Weather Map New forecast layout! Learn more

10-Day Weather Forecast

Advertisements
Track Severe Weather on mobile